Map

Track Data

SID SEASON NUMBER BASIN SUBBASIN NAME ISO_TIME NATURE LAT LON WMO_WIND WMO_PRES WMO_AGENCY TRACK_TYPE DIST2LAND LANDFALL IFLAG USA_AGENCY USA_ATCF_ID USA_LAT USA_LON USA_RECORD USA_STATUS USA_WIND USA_PRES USA_SSHS USA_R34_NE USA_R34_SE USA_R34_SW USA_R34_NW USA_R50_NE USA_R50_SE USA_R50_SW USA_R50_NW USA_R64_NE USA_R64_SE USA_R64_SW USA_R64_NW USA_POCI USA_ROCI USA_RMW USA_EYE TOKYO_LAT TOKYO_LON TOKYO_GRADE TOKYO_WIND TOKYO_PRES TOKYO_R50_DIR TOKYO_R50_LONG TOKYO_R50_SHORT TOKYO_R30_DIR TOKYO_R30_LONG TOKYO_R30_SHORT TOKYO_LAND CMA_LAT CMA_LON CMA_CAT CMA_WIND CMA_PRES HKO_LAT HKO_LON HKO_CAT HKO_WIND HKO_PRES NEWDELHI_LAT NEWDELHI_LON NEWDELHI_GRADE NEWDELHI_WIND NEWDELHI_PRES NEWDELHI_CI NEWDELHI_DP NEWDELHI_POCI REUNION_LAT REUNION_LON REUNION_TYPE REUNION_WIND REUNION_PRES REUNION_TNUM REUNION_CI REUNION_RMW REUNION_R34_NE REUNION_R34_SE REUNION_R34_SW REUNION_R34_NW REUNION_R50_NE REUNION_R50_SE REUNION_R50_SW REUNION_R50_NW REUNION_R64_NE REUNION_R64_SE REUNION_R64_SW REUNION_R64_NW BOM_LAT BOM_LON BOM_TYPE BOM_WIND BOM_PRES BOM_TNUM BOM_CI BOM_RMW BOM_R34_NE BOM_R34_SE BOM_R34_SW BOM_R34_NW BOM_R50_NE BOM_R50_SE BOM_R50_SW BOM_R50_NW BOM_R64_NE BOM_R64_SE BOM_R64_SW BOM_R64_NW BOM_ROCI BOM_POCI BOM_EYE BOM_POS_METHOD BOM_PRES_METHOD NADI_LAT NADI_LON NADI_CAT NADI_WIND NADI_PRES WELLINGTON_LAT WELLINGTON_LON WELLINGTON_WIND WELLINGTON_PRES DS824_LAT DS824_LON DS824_STAGE DS824_WIND DS824_PRES TD9636_LAT TD9636_LON TD9636_STAGE TD9636_WIND TD9636_PRES TD9635_LAT TD9635_LON TD9635_WIND TD9635_PRES TD9635_ROCI NEUMANN_LAT NEUMANN_LON NEUMANN_CLASS NEUMANN_WIND NEUMANN_PRES MLC_LAT MLC_LON MLC_CLASS MLC_WIND MLC_PRES USA_GUST BOM_GUST BOM_GUST_PER REUNION_GUST REUNION_GUST_PER USA_SEAHGT USA_SEARAD_NE USA_SEARAD_SE USA_SEARAD_SW USA_SEARAD_NW STORM_SPEED STORM_DIR
1961241N18117 1961 81 WP MM NOT_NAMED 1961-08-29 06:00:00 TS 18.0000 117.000 main 352 343 __O___________ -1 18.0000 117.000 0 19 1004 5 35
1961241N18117 1961 81 WP MM NOT_NAMED 1961-08-29 09:00:00 TS 18.2000 117.145 main 345 326 __P___________ -1 18.2000 117.145 0 21 1003 5 35
1961241N18117 1961 81 WP MM NOT_NAMED 1961-08-29 12:00:00 TS 18.4000 117.300 main 329 316 __O___________ -1 18.4000 117.300 1 23 1002 5 37
1961241N18117 1961 81 WP MM NOT_NAMED 1961-08-29 15:00:00 TS 18.6000 117.465 main 316 310 __P___________ -1 18.6000 117.465 1 23 1002 5 35
1961241N18117 1961 81 WP MM NOT_NAMED 1961-08-29 18:00:00 TS 18.8000 117.600 main 315 308 __O___________ -1 18.8000 117.600 1 23 1002 4 25
1961241N18117 1961 81 WP MM NOT_NAMED 1961-08-29 21:00:00 TS 19.0000 117.665 main 311 311 __P___________ -1 19.0000 117.665 1 23 1002 4 13
1961241N18117 1961 81 WP MM NOT_NAMED 1961-08-30 00:00:00 TS 19.2000 117.700 main 318 311 __O___________ -1 19.2000 117.700 1 23 1002 4 14
1961241N18117 1961 81 WP MM NOT_NAMED 1961-08-30 03:00:00 TS 19.3925 117.772 main 315 315 __P___________ -1 19.3925 117.772 1 26 1002 4 13
1961241N18117 1961 81 WP MM NOT_NAMED 1961-08-30 06:00:00 TS 19.6000 117.800 main 323 323 __O___________ -1 19.6000 117.800 1 29 1002 5 0
1961241N18117 1961 81 WP MM NOT_NAMED 1961-08-30 09:00:00 TS 19.8424 117.752 main 333 333 __P___________ -1 19.8424 117.752 1 29 1002 5 339
1961241N18117 1961 81 WP MM NOT_NAMED 1961-08-30 12:00:00 TS 20.1000 117.600 main 333 305 __O___________ -1 20.1000 117.600 1 29 1002 6 325
1961241N18117 1961 81 WP MM NOT_NAMED 1961-08-30 15:00:00 TS 20.3422 117.375 main 305 262 __P___________ -1 20.3422 117.375 1 29 1002 8 312
1961241N18117 1961 81 WP MM NOT_NAMED 1961-08-30 18:00:00 TS 20.6000 117.000 main 262 213 __O___________ -1 20.6000 117.000 1 29 1002 10 302
1961241N18117 1961 81 WP MM NOT_NAMED 1961-08-30 21:00:00 TS 20.8928 116.430 main 210 167 __P___________ -1 20.8928 116.430 1 33 1001 13 298
1961241N18117 1961 81 WP MM NOT_NAMED 1961-08-31 00:00:00 TS 21.2000 115.800 main 167 119 __O___________ -1 21.2000 115.800 2 38 1000 12 300
1961241N18117 1961 81 WP MM NOT_NAMED 1961-08-31 03:00:00 TS 21.5146 115.292 main 119 76 __P___________ -1 21.5146 115.292 2 38 997 11 303
1961241N18117 1961 81 WP MM NOT_NAMED 1961-08-31 06:00:00 TS 21.8000 114.800 main 76 33 __O___________ -1 21.8000 114.800 2 38 995 11 298
1961241N18117 1961 81 WP MM NOT_NAMED 1961-08-31 09:00:00 TS 22.0375 114.250 main 33 20 __P___________ -1 22.0375 114.250 2 38 995 11 291
1961241N18117 1961 81 WP MM NOT_NAMED 1961-08-31 12:00:00 TS 22.2000 113.700 main 20 0 __O___________ -1 22.2000 113.700 2 38 995 10 283
1961241N18117 1961 81 WP MM NOT_NAMED 1961-08-31 15:00:00 TS 22.2647 113.200 main 0 0 __P___________ -1 22.2647 113.200 2 33 997 9 276
1961241N18117 1961 81 WP MM NOT_NAMED 1961-08-31 18:00:00 TS 22.3000 112.700 main 0 0 __O___________ -1 22.3000 112.700 1 29 1000 10 277
1961241N18117 1961 81 WP MM NOT_NAMED 1961-08-31 21:00:00 TS 22.3830 112.163 main 0 0 __P___________ -1 22.3830 112.163 1 23 1000 10 281
1961241N18117 1961 81 WP MM NOT_NAMED 1961-09-01 00:00:00 TS 22.5000 111.600 main 0 __O___________ -1 22.5000 111.600 0 17 1000 11 283

Digital Typhoon Data and Search

About IBTrACS Database

This database is a web-friendly format of International Best Track Archive for Climate Stewardship (IBTrACS), a global best track data archive curated by NOAA dating back to 1842.

Updated: 2021-10-21